sensor_id;sensor_type;location;lat;lon;timestamp;P1;durP1;ratioP1;P2;durP2;ratioP2
32365;SDS011;18837;46.832;16.838;2023-06-10T00:01:52;3.50;;;3.20;;
32365;SDS011;18837;46.832;16.838;2023-06-10T00:04:20;4.10;;;3.33;;
32365;SDS011;18837;46.832;16.838;2023-06-10T00:06:46;4.00;;;3.40;;
32365;SDS011;18837;46.832;16.838;2023-06-10T00:09:13;3.53;;;3.20;;
32365;SDS011;18837;46.832;16.838;2023-06-10T00:11:39;3.03;;;2.83;;
32365;SDS011;18837;46.832;16.838;2023-06-10T00:14:06;3.20;;;3.00;;
32365;SDS011;18837;46.832;16.838;2023-06-10T00:16:34;3.50;;;3.20;;
32365;SDS011;18837;46.832;16.838;2023-06-10T00:19:00;3.30;;;3.00;;
32365;SDS011;18837;46.832;16.838;2023-06-10T00:21:27;3.33;;;3.03;;
32365;SDS011;18837;46.832;16.838;2023-06-10T00:23:53;3.03;;;2.83;;
32365;SDS011;18837;46.832;16.838;2023-06-10T00:26:20;3.47;;;3.17;;
32365;SDS011;18837;46.832;16.838;2023-06-10T00:28:47;3.70;;;3.40;;
32365;SDS011;18837;46.832;16.838;2023-06-10T00:31:13;3.47;;;3.17;;
32365;SDS011;18837;46.832;16.838;2023-06-10T00:33:40;3.60;;;3.30;;
32365;SDS011;18837;46.832;16.838;2023-06-10T00:36:06;3.33;;;3.00;;
32365;SDS011;18837;46.832;16.838;2023-06-10T00:38:31;3.60;;;3.30;;
32365;SDS011;18837;46.832;16.838;2023-06-10T00:40:58;3.60;;;3.30;;
32365;SDS011;18837;46.832;16.838;2023-06-10T00:43:24;3.20;;;3.00;;
32365;SDS011;18837;46.832;16.838;2023-06-10T00:45:49;3.53;;;3.23;;
32365;SDS011;18837;46.832;16.838;2023-06-10T00:48:17;3.43;;;3.10;;
32365;SDS011;18837;46.832;16.838;2023-06-10T00:50:43;3.73;;;3.30;;
32365;SDS011;18837;46.832;16.838;2023-06-10T00:53:31;3.53;;;3.23;;
32365;SDS011;18837;46.832;16.838;2023-06-10T00:55:58;3.60;;;3.27;;
32365;SDS011;18837;46.832;16.838;2023-06-10T00:58:24;3.67;;;3.37;;
32365;SDS011;18837;46.832;16.838;2023-06-10T01:00:51;5.90;;;3.60;;
32365;SDS011;18837;46.832;16.838;2023-06-10T01:03:17;3.20;;;3.00;;
32365;SDS011;18837;46.832;16.838;2023-06-10T01:05:43;4.03;;;3.00;;
32365;SDS011;18837;46.832;16.838;2023-06-10T01:08:28;3.20;;;2.90;;
32365;SDS011;18837;46.832;16.838;2023-06-10T01:11:42;2.90;;;2.70;;
32365;SDS011;18837;46.832;16.838;2023-06-10T01:14:12;3.43;;;3.13;;
32365;SDS011;18837;46.832;16.838;2023-06-10T01:16:39;4.33;;;3.53;;
32365;SDS011;18837;46.832;16.838;2023-06-10T01:19:06;3.87;;;3.00;;
32365;SDS011;18837;46.832;16.838;2023-06-10T01:21:32;3.60;;;3.30;;
32365;SDS011;18837;46.832;16.838;2023-06-10T01:23:58;3.60;;;2.73;;
32365;SDS011;18837;46.832;16.838;2023-06-10T01:26:27;3.00;;;2.80;;
32365;SDS011;18837;46.832;16.838;2023-06-10T01:34:28;3.70;;;3.40;;
32365;SDS011;18837;46.832;16.838;2023-06-10T01:36:56;2.93;;;2.73;;
32365;SDS011;18837;46.832;16.838;2023-06-10T01:39:23;2.97;;;2.77;;
32365;SDS011;18837;46.832;16.838;2023-06-10T01:41:50;3.50;;;3.20;;
32365;SDS011;18837;46.832;16.838;2023-06-10T01:44:22;2.97;;;2.77;;
32365;SDS011;18837;46.832;16.838;2023-06-10T01:46:49;3.20;;;2.90;;
32365;SDS011;18837;46.832;16.838;2023-06-10T01:49:14;2.83;;;2.63;;
32365;SDS011;18837;46.832;16.838;2023-06-10T01:51:40;3.00;;;2.80;;
32365;SDS011;18837;46.832;16.838;2023-06-10T01:54:06;3.60;;;3.30;;
32365;SDS011;18837;46.832;16.838;2023-06-10T01:56:33;3.20;;;2.90;;
32365;SDS011;18837;46.832;16.838;2023-06-10T01:58:58;3.33;;;3.13;;
32365;SDS011;18837;46.832;16.838;2023-06-10T02:01:25;3.37;;;3.07;;
32365;SDS011;18837;46.832;16.838;2023-06-10T02:03:51;3.27;;;3.00;;
32365;SDS011;18837;46.832;16.838;2023-06-10T02:06:17;3.20;;;3.00;;
32365;SDS011;18837;46.832;16.838;2023-06-10T02:08:42;3.10;;;2.80;;
32365;SDS011;18837;46.832;16.838;2023-06-10T02:11:08;3.10;;;2.90;;
32365;SDS011;18837;46.832;16.838;2023-06-10T02:13:34;3.23;;;2.93;;
32365;SDS011;18837;46.832;16.838;2023-06-10T02:16:00;3.27;;;2.97;;
32365;SDS011;18837;46.832;16.838;2023-06-10T02:18:27;3.43;;;3.13;;
32365;SDS011;18837;46.832;16.838;2023-06-10T02:20:53;2.80;;;2.60;;
32365;SDS011;18837;46.832;16.838;2023-06-10T02:23:19;3.33;;;3.03;;
32365;SDS011;18837;46.832;16.838;2023-06-10T02:25:45;3.47;;;3.17;;
32365;SDS011;18837;46.832;16.838;2023-06-10T02:28:13;3.43;;;3.13;;
32365;SDS011;18837;46.832;16.838;2023-06-10T02:30:42;3.20;;;2.90;;
32365;SDS011;18837;46.832;16.838;2023-06-10T02:33:08;3.40;;;3.10;;
32365;SDS011;18837;46.832;16.838;2023-06-10T02:35:37;3.00;;;2.80;;
32365;SDS011;18837;46.832;16.838;2023-06-10T02:38:04;2.97;;;2.70;;
32365;SDS011;18837;46.832;16.838;2023-06-10T02:40:29;4.07;;;2.97;;
32365;SDS011;18837;46.832;16.838;2023-06-10T02:42:55;3.07;;;2.80;;
32365;SDS011;18837;46.832;16.838;2023-06-10T02:45:21;3.40;;;3.10;;
32365;SDS011;18837;46.832;16.838;2023-06-10T02:47:47;3.60;;;3.30;;
32365;SDS011;18837;46.832;16.838;2023-06-10T02:50:13;3.23;;;2.93;;
32365;SDS011;18837;46.832;16.838;2023-06-10T02:52:38;3.30;;;3.00;;
32365;SDS011;18837;46.832;16.838;2023-06-10T02:55:04;2.80;;;2.60;;
32365;SDS011;18837;46.832;16.838;2023-06-10T02:57:30;3.47;;;3.17;;
32365;SDS011;18837;46.832;16.838;2023-06-10T02:59:56;3.07;;;2.70;;
32365;SDS011;18837;46.832;16.838;2023-06-10T03:02:23;3.10;;;2.90;;
32365;SDS011;18837;46.832;16.838;2023-06-10T03:04:54;3.33;;;3.03;;
32365;SDS011;18837;46.832;16.838;2023-06-10T03:07:20;3.20;;;2.90;;
32365;SDS011;18837;46.832;16.838;2023-06-10T03:09:46;3.30;;;3.00;;
32365;SDS011;18837;46.832;16.838;2023-06-10T03:12:12;3.13;;;2.93;;
32365;SDS011;18837;46.832;16.838;2023-06-10T03:14:38;2.90;;;2.70;;
32365;SDS011;18837;46.832;16.838;2023-06-10T03:17:04;2.90;;;2.70;;
32365;SDS011;18837;46.832;16.838;2023-06-10T03:19:30;3.07;;;2.60;;
32365;SDS011;18837;46.832;16.838;2023-06-10T03:21:57;3.57;;;3.00;;
32365;SDS011;18837;46.832;16.838;2023-06-10T03:24:33;3.20;;;2.70;;
32365;SDS011;18837;46.832;16.838;2023-06-10T03:27:08;3.87;;;2.70;;
32365;SDS011;18837;46.832;16.838;2023-06-10T03:29:36;3.10;;;2.83;;
32365;SDS011;18837;46.832;16.838;2023-06-10T03:32:03;2.93;;;2.70;;
32365;SDS011;18837;46.832;16.838;2023-06-10T03:34:29;3.17;;;2.87;;
32365;SDS011;18837;46.832;16.838;2023-06-10T03:36:55;3.10;;;2.90;;
32365;SDS011;18837;46.832;16.838;2023-06-10T03:39:21;4.43;;;3.10;;
32365;SDS011;18837;46.832;16.838;2023-06-10T03:41:48;3.23;;;2.93;;
32365;SDS011;18837;46.832;16.838;2023-06-10T03:44:16;3.23;;;2.93;;
32365;SDS011;18837;46.832;16.838;2023-06-10T03:46:41;2.97;;;2.70;;
32365;SDS011;18837;46.832;16.838;2023-06-10T03:49:07;2.80;;;2.60;;
32365;SDS011;18837;46.832;16.838;2023-06-10T03:51:34;3.03;;;2.73;;
32365;SDS011;18837;46.832;16.838;2023-06-10T03:54:00;3.40;;;2.73;;
32365;SDS011;18837;46.832;16.838;2023-06-10T03:56:26;3.20;;;2.80;;
32365;SDS011;18837;46.832;16.838;2023-06-10T03:58:58;2.90;;;2.70;;
32365;SDS011;18837;46.832;16.838;2023-06-10T04:01:29;3.77;;;3.27;;
32365;SDS011;18837;46.832;16.838;2023-06-10T04:03:56;3.27;;;2.97;;
32365;SDS011;18837;46.832;16.838;2023-06-10T04:06:22;3.77;;;2.83;;
32365;SDS011;18837;46.832;16.838;2023-06-10T04:08:50;4.53;;;2.97;;
32365;SDS011;18837;46.832;16.838;2023-06-10T04:11:16;3.67;;;3.10;;
32365;SDS011;18837;46.832;16.838;2023-06-10T04:13:42;2.70;;;2.50;;
32365;SDS011;18837;46.832;16.838;2023-06-10T04:16:08;2.90;;;2.70;;
32365;SDS011;18837;46.832;16.838;2023-06-10T04:18:35;2.60;;;2.40;;
32365;SDS011;18837;46.832;16.838;2023-06-10T04:21:01;3.30;;;3.00;;
32365;SDS011;18837;46.832;16.838;2023-06-10T04:23:26;3.30;;;2.60;;
32365;SDS011;18837;46.832;16.838;2023-06-10T04:25:52;3.27;;;2.97;;
32365;SDS011;18837;46.832;16.838;2023-06-10T04:28:18;3.10;;;2.80;;
32365;SDS011;18837;46.832;16.838;2023-06-10T04:30:44;3.03;;;2.83;;
32365;SDS011;18837;46.832;16.838;2023-06-10T04:33:10;3.00;;;2.70;;
32365;SDS011;18837;46.832;16.838;2023-06-10T04:35:37;2.93;;;2.73;;
32365;SDS011;18837;46.832;16.838;2023-06-10T04:38:04;2.63;;;2.43;;
32365;SDS011;18837;46.832;16.838;2023-06-10T04:40:30;3.13;;;2.83;;
32365;SDS011;18837;46.832;16.838;2023-06-10T04:42:55;2.93;;;2.63;;
32365;SDS011;18837;46.832;16.838;2023-06-10T04:45:21;3.37;;;3.07;;
32365;SDS011;18837;46.832;16.838;2023-06-10T04:47:47;3.40;;;3.10;;
32365;SDS011;18837;46.832;16.838;2023-06-10T04:50:12;2.90;;;2.70;;
32365;SDS011;18837;46.832;16.838;2023-06-10T04:52:39;2.77;;;2.57;;
32365;SDS011;18837;46.832;16.838;2023-06-10T04:55:06;3.17;;;2.87;;
32365;SDS011;18837;46.832;16.838;2023-06-10T04:57:33;3.13;;;2.83;;
32365;SDS011;18837;46.832;16.838;2023-06-10T04:59:58;3.33;;;3.03;;
32365;SDS011;18837;46.832;16.838;2023-06-10T05:02:24;3.23;;;2.93;;
32365;SDS011;18837;46.832;16.838;2023-06-10T05:04:50;2.93;;;2.73;;
32365;SDS011;18837;46.832;16.838;2023-06-10T05:07:16;2.93;;;2.73;;
32365;SDS011;18837;46.832;16.838;2023-06-10T05:09:42;3.13;;;2.90;;
32365;SDS011;18837;46.832;16.838;2023-06-10T05:12:10;2.80;;;2.60;;
32365;SDS011;18837;46.832;16.838;2023-06-10T05:14:35;3.10;;;2.80;;
32365;SDS011;18837;46.832;16.838;2023-06-10T05:17:01;3.20;;;2.90;;
32365;SDS011;18837;46.832;16.838;2023-06-10T05:19:27;2.93;;;2.60;;
32365;SDS011;18837;46.832;16.838;2023-06-10T05:21:53;2.77;;;2.57;;
32365;SDS011;18837;46.832;16.838;2023-06-10T05:24:19;2.97;;;2.77;;
32365;SDS011;18837;46.832;16.838;2023-06-10T05:26:44;3.60;;;3.30;;
32365;SDS011;18837;46.832;16.838;2023-06-10T05:29:10;3.10;;;2.90;;
32365;SDS011;18837;46.832;16.838;2023-06-10T05:31:36;3.03;;;2.83;;
32365;SDS011;18837;46.832;16.838;2023-06-10T05:34:02;4.13;;;3.10;;
32365;SDS011;18837;46.832;16.838;2023-06-10T05:36:28;2.97;;;2.67;;
32365;SDS011;18837;46.832;16.838;2023-06-10T05:38:53;3.00;;;2.80;;
32365;SDS011;18837;46.832;16.838;2023-06-10T05:41:19;3.13;;;2.83;;
32365;SDS011;18837;46.832;16.838;2023-06-10T05:43:49;2.90;;;2.60;;
32365;SDS011;18837;46.832;16.838;2023-06-10T05:46:32;2.87;;;2.67;;
32365;SDS011;18837;46.832;16.838;2023-06-10T05:48:59;3.33;;;3.10;;
32365;SDS011;18837;46.832;16.838;2023-06-10T05:51:24;3.17;;;2.80;;
32365;SDS011;18837;46.832;16.838;2023-06-10T05:53:50;3.57;;;3.10;;
32365;SDS011;18837;46.832;16.838;2023-06-10T05:56:16;3.63;;;3.03;;
32365;SDS011;18837;46.832;16.838;2023-06-10T05:58:42;3.03;;;2.80;;
32365;SDS011;18837;46.832;16.838;2023-06-10T06:01:07;3.53;;;3.27;;
32365;SDS011;18837;46.832;16.838;2023-06-10T06:03:33;3.40;;;3.10;;
32365;SDS011;18837;46.832;16.838;2023-06-10T06:05:59;4.23;;;3.00;;
32365;SDS011;18837;46.832;16.838;2023-06-10T06:08:25;3.50;;;3.20;;
32365;SDS011;18837;46.832;16.838;2023-06-10T06:10:50;3.43;;;3.13;;
32365;SDS011;18837;46.832;16.838;2023-06-10T06:13:16;4.00;;;3.70;;
32365;SDS011;18837;46.832;16.838;2023-06-10T06:15:42;3.93;;;3.63;;
32365;SDS011;18837;46.832;16.838;2023-06-10T06:21:05;4.10;;;3.40;;
32365;SDS011;18837;46.832;16.838;2023-06-10T06:23:31;4.20;;;3.80;;
32365;SDS011;18837;46.832;16.838;2023-06-10T06:25:57;4.30;;;3.27;;
32365;SDS011;18837;46.832;16.838;2023-06-10T06:28:22;3.73;;;3.40;;
32365;SDS011;18837;46.832;16.838;2023-06-10T06:30:53;3.67;;;3.03;;
32365;SDS011;18837;46.832;16.838;2023-06-10T06:33:22;4.43;;;3.43;;
32365;SDS011;18837;46.832;16.838;2023-06-10T06:35:48;3.87;;;3.57;;
32365;SDS011;18837;46.832;16.838;2023-06-10T06:38:17;3.97;;;3.67;;
32365;SDS011;18837;46.832;16.838;2023-06-10T06:40:43;4.70;;;4.30;;
32365;SDS011;18837;46.832;16.838;2023-06-10T06:43:08;4.73;;;4.33;;
32365;SDS011;18837;46.832;16.838;2023-06-10T06:45:34;4.50;;;4.10;;
32365;SDS011;18837;46.832;16.838;2023-06-10T06:48:00;5.47;;;4.97;;
32365;SDS011;18837;46.832;16.838;2023-06-10T06:50:25;6.13;;;5.53;;
32365;SDS011;18837;46.832;16.838;2023-06-10T06:55:36;5.83;;;5.23;;
32365;SDS011;18837;46.832;16.838;2023-06-10T06:58:01;6.80;;;6.20;;
32365;SDS011;18837;46.832;16.838;2023-06-10T07:00:29;7.77;;;6.83;;
32365;SDS011;18837;46.832;16.838;2023-06-10T07:02:55;7.60;;;6.90;;
32365;SDS011;18837;46.832;16.838;2023-06-10T07:05:22;8.77;;;7.87;;
32365;SDS011;18837;46.832;16.838;2023-06-10T07:07:48;7.33;;;6.63;;
32365;SDS011;18837;46.832;16.838;2023-06-10T07:10:19;8.87;;;8.07;;
32365;SDS011;18837;46.832;16.838;2023-06-10T07:12:49;7.90;;;7.17;;
32365;SDS011;18837;46.832;16.838;2023-06-10T07:15:15;8.80;;;7.90;;
32365;SDS011;18837;46.832;16.838;2023-06-10T07:17:41;8.37;;;7.57;;
32365;SDS011;18837;46.832;16.838;2023-06-10T07:20:07;8.87;;;8.07;;
32365;SDS011;18837;46.832;16.838;2023-06-10T07:22:33;8.77;;;7.43;;
32365;SDS011;18837;46.832;16.838;2023-06-10T07:24:58;7.37;;;6.67;;
32365;SDS011;18837;46.832;16.838;2023-06-10T07:27:25;8.87;;;8.03;;
32365;SDS011;18837;46.832;16.838;2023-06-10T07:29:54;8.20;;;7.40;;
32365;SDS011;18837;46.832;16.838;2023-06-10T07:32:21;8.20;;;7.27;;
32365;SDS011;18837;46.832;16.838;2023-06-10T07:34:48;9.23;;;8.33;;
32365;SDS011;18837;46.832;16.838;2023-06-10T07:37:14;10.03;;;9.03;;
32365;SDS011;18837;46.832;16.838;2023-06-10T07:39:40;10.53;;;9.60;;
32365;SDS011;18837;46.832;16.838;2023-06-10T07:42:07;8.80;;;8.00;;
32365;SDS011;18837;46.832;16.838;2023-06-10T07:44:33;8.57;;;7.77;;
32365;SDS011;18837;46.832;16.838;2023-06-10T07:46:59;9.87;;;8.97;;
32365;SDS011;18837;46.832;16.838;2023-06-10T07:49:25;9.53;;;8.73;;
32365;SDS011;18837;46.832;16.838;2023-06-10T07:51:51;9.90;;;8.97;;
32365;SDS011;18837;46.832;16.838;2023-06-10T07:54:18;9.27;;;8.40;;
32365;SDS011;18837;46.832;16.838;2023-06-10T07:56:44;8.97;;;8.17;;
32365;SDS011;18837;46.832;16.838;2023-06-10T07:59:10;9.13;;;8.23;;
32365;SDS011;18837;46.832;16.838;2023-06-10T08:01:36;11.33;;;9.30;;
32365;SDS011;18837;46.832;16.838;2023-06-10T08:04:04;16.27;;;8.93;;
32365;SDS011;18837;46.832;16.838;2023-06-10T08:06:39;27.13;;;10.10;;
32365;SDS011;18837;46.832;16.838;2023-06-10T08:09:05;13.60;;;10.27;;
32365;SDS011;18837;46.832;16.838;2023-06-10T08:11:31;11.23;;;9.13;;
32365;SDS011;18837;46.832;16.838;2023-06-10T08:13:57;10.33;;;9.27;;
32365;SDS011;18837;46.832;16.838;2023-06-10T08:16:23;12.37;;;9.27;;
32365;SDS011;18837;46.832;16.838;2023-06-10T08:18:48;11.87;;;9.17;;
32365;SDS011;18837;46.832;16.838;2023-06-10T08:21:16;11.13;;;9.80;;
32365;SDS011;18837;46.832;16.838;2023-06-10T08:23:42;9.87;;;8.87;;
32365;SDS011;18837;46.832;16.838;2023-06-10T08:26:09;9.40;;;8.50;;
32365;SDS011;18837;46.832;16.838;2023-06-10T08:28:34;9.47;;;8.57;;
32365;SDS011;18837;46.832;16.838;2023-06-10T08:31:00;11.83;;;8.63;;
32365;SDS011;18837;46.832;16.838;2023-06-10T08:33:26;9.10;;;8.37;;
32365;SDS011;18837;46.832;16.838;2023-06-10T08:38:38;9.73;;;8.83;;
32365;SDS011;18837;46.832;16.838;2023-06-10T08:41:25;10.63;;;9.53;;
32365;SDS011;18837;46.832;16.838;2023-06-10T08:43:58;9.40;;;8.47;;
32365;SDS011;18837;46.832;16.838;2023-06-10T08:46:29;10.13;;;9.13;;
32365;SDS011;18837;46.832;16.838;2023-06-10T08:48:57;9.90;;;9.00;;
32365;SDS011;18837;46.832;16.838;2023-06-10T08:51:27;9.73;;;8.80;;
32365;SDS011;18837;46.832;16.838;2023-06-10T08:54:04;9.83;;;8.90;;
32365;SDS011;18837;46.832;16.838;2023-06-10T08:56:38;10.10;;;9.00;;
32365;SDS011;18837;46.832;16.838;2023-06-10T08:59:05;9.53;;;8.63;;
32365;SDS011;18837;46.832;16.838;2023-06-10T09:01:31;9.77;;;8.87;;
32365;SDS011;18837;46.832;16.838;2023-06-10T09:03:58;9.60;;;8.70;;
32365;SDS011;18837;46.832;16.838;2023-06-10T09:06:25;10.27;;;9.23;;
32365;SDS011;18837;46.832;16.838;2023-06-10T09:08:51;9.67;;;8.77;;
32365;SDS011;18837;46.832;16.838;2023-06-10T09:11:17;10.47;;;9.37;;
32365;SDS011;18837;46.832;16.838;2023-06-10T09:13:43;9.43;;;8.63;;
32365;SDS011;18837;46.832;16.838;2023-06-10T09:16:09;10.00;;;9.03;;
32365;SDS011;18837;46.832;16.838;2023-06-10T09:18:37;9.67;;;8.77;;
32365;SDS011;18837;46.832;16.838;2023-06-10T09:21:03;10.53;;;9.43;;
32365;SDS011;18837;46.832;16.838;2023-06-10T09:23:28;10.27;;;9.20;;
32365;SDS011;18837;46.832;16.838;2023-06-10T09:31:36;10.43;;;9.50;;
32365;SDS011;18837;46.832;16.838;2023-06-10T09:34:12;9.77;;;8.87;;
32365;SDS011;18837;46.832;16.838;2023-06-10T09:36:39;10.17;;;9.20;;
32365;SDS011;18837;46.832;16.838;2023-06-10T09:39:13;10.27;;;9.20;;
32365;SDS011;18837;46.832;16.838;2023-06-10T09:41:44;11.23;;;10.00;;
32365;SDS011;18837;46.832;16.838;2023-06-10T09:44:29;11.60;;;9.77;;
32365;SDS011;18837;46.832;16.838;2023-06-10T09:46:56;9.73;;;8.77;;
32365;SDS011;18837;46.832;16.838;2023-06-10T09:49:24;10.60;;;8.80;;
32365;SDS011;18837;46.832;16.838;2023-06-10T09:51:54;13.73;;;9.17;;
32365;SDS011;18837;46.832;16.838;2023-06-10T09:54:21;13.97;;;9.20;;
32365;SDS011;18837;46.832;16.838;2023-06-10T09:56:47;11.73;;;9.63;;
32365;SDS011;18837;46.832;16.838;2023-06-10T10:02:19;9.57;;;8.70;;
32365;SDS011;18837;46.832;16.838;2023-06-10T10:07:44;12.43;;;9.53;;
32365;SDS011;18837;46.832;16.838;2023-06-10T10:10:11;9.80;;;8.90;;
32365;SDS011;18837;46.832;16.838;2023-06-10T10:12:38;9.70;;;8.77;;
32365;SDS011;18837;46.832;16.838;2023-06-10T10:15:08;9.50;;;8.60;;
32365;SDS011;18837;46.832;16.838;2023-06-10T10:17:46;9.83;;;8.83;;
32365;SDS011;18837;46.832;16.838;2023-06-10T10:20:22;9.00;;;8.13;;
32365;SDS011;18837;46.832;16.838;2023-06-10T10:22:58;9.73;;;8.63;;
32365;SDS011;18837;46.832;16.838;2023-06-10T10:25:34;9.37;;;8.50;;
32365;SDS011;18837;46.832;16.838;2023-06-10T10:28:08;8.97;;;8.17;;
32365;SDS011;18837;46.832;16.838;2023-06-10T10:30:42;9.23;;;8.33;;
32365;SDS011;18837;46.832;16.838;2023-06-10T10:36:11;9.27;;;8.47;;
32365;SDS011;18837;46.832;16.838;2023-06-10T10:38:50;8.83;;;7.93;;
32365;SDS011;18837;46.832;16.838;2023-06-10T10:41:17;9.30;;;8.20;;
32365;SDS011;18837;46.832;16.838;2023-06-10T10:43:44;9.50;;;8.50;;
32365;SDS011;18837;46.832;16.838;2023-06-10T10:46:12;8.97;;;8.07;;
32365;SDS011;18837;46.832;16.838;2023-06-10T10:48:39;8.20;;;7.43;;
32365;SDS011;18837;46.832;16.838;2023-06-10T10:51:08;8.60;;;7.80;;
32365;SDS011;18837;46.832;16.838;2023-06-10T10:53:38;9.23;;;8.43;;
32365;SDS011;18837;46.832;16.838;2023-06-10T10:56:05;9.33;;;8.47;;
32365;SDS011;18837;46.832;16.838;2023-06-10T10:58:33;9.30;;;8.50;;
32365;SDS011;18837;46.832;16.838;2023-06-10T11:00:58;8.13;;;7.43;;
32365;SDS011;18837;46.832;16.838;2023-06-10T11:03:27;7.27;;;6.67;;
32365;SDS011;18837;46.832;16.838;2023-06-10T11:05:57;8.33;;;7.53;;
32365;SDS011;18837;46.832;16.838;2023-06-10T11:11:26;7.77;;;7.07;;
32365;SDS011;18837;46.832;16.838;2023-06-10T11:14:08;7.60;;;6.90;;
32365;SDS011;18837;46.832;16.838;2023-06-10T11:16:41;7.60;;;7.00;;
32365;SDS011;18837;46.832;16.838;2023-06-10T11:19:08;7.73;;;7.03;;
32365;SDS011;18837;46.832;16.838;2023-06-10T11:24:25;7.67;;;6.97;;
32365;SDS011;18837;46.832;16.838;2023-06-10T11:26:51;7.30;;;6.60;;
32365;SDS011;18837;46.832;16.838;2023-06-10T11:29:18;7.77;;;7.17;;
32365;SDS011;18837;46.832;16.838;2023-06-10T11:31:46;7.67;;;7.03;;
32365;SDS011;18837;46.832;16.838;2023-06-10T11:34:15;6.53;;;6.03;;
32365;SDS011;18837;46.832;16.838;2023-06-10T11:36:48;6.57;;;6.07;;
32365;SDS011;18837;46.832;16.838;2023-06-10T11:39:14;7.30;;;6.70;;
32365;SDS011;18837;46.832;16.838;2023-06-10T11:41:40;6.80;;;6.20;;
32365;SDS011;18837;46.832;16.838;2023-06-10T11:44:14;7.10;;;6.50;;
32365;SDS011;18837;46.832;16.838;2023-06-10T11:46:44;7.17;;;6.57;;
32365;SDS011;18837;46.832;16.838;2023-06-10T11:49:11;5.73;;;5.33;;
32365;SDS011;18837;46.832;16.838;2023-06-10T11:51:38;6.57;;;5.93;;
32365;SDS011;18837;46.832;16.838;2023-06-10T11:54:05;6.67;;;6.07;;
32365;SDS011;18837;46.832;16.838;2023-06-10T11:56:33;6.93;;;6.27;;
32365;SDS011;18837;46.832;16.838;2023-06-10T11:59:05;6.63;;;6.03;;
32365;SDS011;18837;46.832;16.838;2023-06-10T12:01:33;6.30;;;5.80;;
32365;SDS011;18837;46.832;16.838;2023-06-10T12:04:00;6.93;;;6.33;;
32365;SDS011;18837;46.832;16.838;2023-06-10T12:06:43;6.30;;;5.80;;
32365;SDS011;18837;46.832;16.838;2023-06-10T12:09:26;6.83;;;6.27;;
32365;SDS011;18837;46.832;16.838;2023-06-10T12:17:21;6.17;;;5.67;;
32365;SDS011;18837;46.832;16.838;2023-06-10T12:20:25;6.20;;;5.60;;
32365;SDS011;18837;46.832;16.838;2023-06-10T12:22:52;6.17;;;5.67;;
32365;SDS011;18837;46.832;16.838;2023-06-10T12:25:23;5.77;;;5.27;;
32365;SDS011;18837;46.832;16.838;2023-06-10T12:27:54;6.63;;;6.03;;
32365;SDS011;18837;46.832;16.838;2023-06-10T12:30:21;6.37;;;5.77;;
32365;SDS011;18837;46.832;16.838;2023-06-10T12:32:48;6.23;;;5.47;;
32365;SDS011;18837;46.832;16.838;2023-06-10T12:35:17;5.83;;;5.33;;
32365;SDS011;18837;46.832;16.838;2023-06-10T12:37:59;6.40;;;5.90;;
32365;SDS011;18837;46.832;16.838;2023-06-10T12:40:37;5.80;;;5.30;;
32365;SDS011;18837;46.832;16.838;2023-06-10T12:43:05;5.73;;;5.23;;
32365;SDS011;18837;46.832;16.838;2023-06-10T12:48:08;6.43;;;5.83;;
32365;SDS011;18837;46.832;16.838;2023-06-10T12:50:35;6.23;;;5.73;;
32365;SDS011;18837;46.832;16.838;2023-06-10T12:53:24;6.13;;;5.63;;
32365;SDS011;18837;46.832;16.838;2023-06-10T12:58:56;5.80;;;5.30;;
32365;SDS011;18837;46.832;16.838;2023-06-10T13:01:23;6.00;;;5.53;;
32365;SDS011;18837;46.832;16.838;2023-06-10T13:03:49;7.10;;;6.50;;
32365;SDS011;18837;46.832;16.838;2023-06-10T13:06:15;6.17;;;5.67;;
32365;SDS011;18837;46.832;16.838;2023-06-10T13:08:41;6.07;;;5.57;;
32365;SDS011;18837;46.832;16.838;2023-06-10T13:11:07;5.87;;;5.37;;
32365;SDS011;18837;46.832;16.838;2023-06-10T13:13:36;5.77;;;5.30;;
32365;SDS011;18837;46.832;16.838;2023-06-10T13:16:11;6.33;;;5.83;;
32365;SDS011;18837;46.832;16.838;2023-06-10T13:18:37;6.17;;;5.57;;
32365;SDS011;18837;46.832;16.838;2023-06-10T13:21:03;5.90;;;5.40;;
32365;SDS011;18837;46.832;16.838;2023-06-10T13:23:29;6.17;;;5.67;;
32365;SDS011;18837;46.832;16.838;2023-06-10T13:25:56;6.03;;;5.53;;
32365;SDS011;18837;46.832;16.838;2023-06-10T13:28:34;5.70;;;5.13;;
32365;SDS011;18837;46.832;16.838;2023-06-10T13:31:15;6.47;;;5.87;;
32365;SDS011;18837;46.832;16.838;2023-06-10T13:33:41;6.00;;;5.50;;
32365;SDS011;18837;46.832;16.838;2023-06-10T13:36:08;5.33;;;4.93;;
32365;SDS011;18837;46.832;16.838;2023-06-10T13:38:34;5.97;;;5.47;;
32365;SDS011;18837;46.832;16.838;2023-06-10T13:41:00;6.50;;;5.90;;
32365;SDS011;18837;46.832;16.838;2023-06-10T13:43:26;5.70;;;5.30;;
32365;SDS011;18837;46.832;16.838;2023-06-10T13:46:00;5.40;;;5.00;;
32365;SDS011;18837;46.832;16.838;2023-06-10T13:48:26;5.50;;;5.10;;
32365;SDS011;18837;46.832;16.838;2023-06-10T13:50:52;6.30;;;5.70;;
32365;SDS011;18837;46.832;16.838;2023-06-10T13:53:18;5.77;;;5.33;;
32365;SDS011;18837;46.832;16.838;2023-06-10T13:55:43;6.10;;;5.60;;
32365;SDS011;18837;46.832;16.838;2023-06-10T13:58:09;6.17;;;5.67;;
32365;SDS011;18837;46.832;16.838;2023-06-10T14:00:35;6.03;;;5.43;;
32365;SDS011;18837;46.832;16.838;2023-06-10T14:08:45;5.90;;;5.27;;
32365;SDS011;18837;46.832;16.838;2023-06-10T14:11:11;6.23;;;5.73;;
32365;SDS011;18837;46.832;16.838;2023-06-10T14:13:37;5.73;;;5.33;;
32365;SDS011;18837;46.832;16.838;2023-06-10T14:16:03;6.13;;;5.63;;
32365;SDS011;18837;46.832;16.838;2023-06-10T14:18:29;7.40;;;5.70;;
32365;SDS011;18837;46.832;16.838;2023-06-10T14:20:55;6.00;;;5.50;;
32365;SDS011;18837;46.832;16.838;2023-06-10T14:23:21;6.30;;;5.80;;
32365;SDS011;18837;46.832;16.838;2023-06-10T14:25:47;7.63;;;6.77;;
32365;SDS011;18837;46.832;16.838;2023-06-10T14:28:13;6.00;;;5.50;;
32365;SDS011;18837;46.832;16.838;2023-06-10T14:30:39;9.23;;;6.73;;
32365;SDS011;18837;46.832;16.838;2023-06-10T14:33:04;10.23;;;6.60;;
32365;SDS011;18837;46.832;16.838;2023-06-10T14:35:31;10.50;;;6.47;;
32365;SDS011;18837;46.832;16.838;2023-06-10T14:38:08;8.30;;;6.90;;
32365;SDS011;18837;46.832;16.838;2023-06-10T14:41:05;8.57;;;6.07;;
32365;SDS011;18837;46.832;16.838;2023-06-10T14:43:31;8.07;;;6.10;;
32365;SDS011;18837;46.832;16.838;2023-06-10T14:45:56;7.03;;;6.43;;
32365;SDS011;18837;46.832;16.838;2023-06-10T14:48:22;7.00;;;6.37;;
32365;SDS011;18837;46.832;16.838;2023-06-10T14:50:48;7.60;;;6.50;;
32365;SDS011;18837;46.832;16.838;2023-06-10T14:53:16;7.10;;;6.43;;
32365;SDS011;18837;46.832;16.838;2023-06-10T14:55:52;7.33;;;6.60;;
32365;SDS011;18837;46.832;16.838;2023-06-10T14:58:17;6.93;;;5.67;;
32365;SDS011;18837;46.832;16.838;2023-06-10T15:00:43;7.10;;;6.50;;
32365;SDS011;18837;46.832;16.838;2023-06-10T15:03:09;8.13;;;6.13;;
32365;SDS011;18837;46.832;16.838;2023-06-10T15:05:35;6.57;;;5.97;;
32365;SDS011;18837;46.832;16.838;2023-06-10T15:08:02;7.43;;;6.00;;
32365;SDS011;18837;46.832;16.838;2023-06-10T15:10:38;6.63;;;5.93;;
32365;SDS011;18837;46.832;16.838;2023-06-10T15:13:16;6.40;;;5.70;;
32365;SDS011;18837;46.832;16.838;2023-06-10T15:15:56;6.37;;;5.77;;
32365;SDS011;18837;46.832;16.838;2023-06-10T15:18:22;6.30;;;5.80;;
32365;SDS011;18837;46.832;16.838;2023-06-10T15:20:48;6.97;;;6.13;;
32365;SDS011;18837;46.832;16.838;2023-06-10T15:23:14;7.40;;;5.70;;
32365;SDS011;18837;46.832;16.838;2023-06-10T15:25:40;8.73;;;6.47;;
32365;SDS011;18837;46.832;16.838;2023-06-10T15:28:06;7.50;;;5.53;;
32365;SDS011;18837;46.832;16.838;2023-06-10T15:30:39;6.30;;;5.70;;